createdAt,value
2018-05-21T00:00:06.979Z,93.94
2018-05-21T00:01:27.986Z,93.74
2018-05-21T00:02:06.977Z,94.51
2018-05-21T00:03:06.981Z,94.22
2018-05-21T00:04:07.057Z,93.65
2018-05-21T00:05:07.135Z,94.13
2018-05-21T00:06:07.070Z,94.89
2018-05-21T00:07:27.979Z,94.89
2018-05-21T00:08:06.972Z,95.08
2018-05-21T00:09:06.967Z,95.27
2018-05-21T00:10:06.966Z,95.56
2018-05-21T00:11:06.968Z,95.17
2018-05-21T00:12:06.966Z,95.27
2018-05-21T00:13:27.969Z,95.46
2018-05-21T00:14:06.959Z,95.36
2018-05-21T00:15:07.062Z,94.79
2018-05-21T00:16:06.955Z,95.27
2018-05-21T00:17:06.958Z,95.46
2018-05-21T00:18:06.953Z,95.65
2018-05-21T00:19:27.957Z,95.08
2018-05-21T00:20:06.981Z,95.84
2018-05-21T00:21:06.946Z,95.36
2018-05-21T00:22:06.945Z,95.75
2018-05-21T00:23:06.963Z,96.31
2018-05-21T00:24:06.944Z,96.12
2018-05-21T00:25:27.948Z,96.41
2018-05-21T00:26:06.950Z,97.08
2018-05-21T00:27:06.940Z,96.89
2018-05-21T00:28:06.953Z,97.17
2018-05-21T00:29:06.932Z,96.89
2018-05-21T00:30:06.932Z,96.89
2018-05-21T00:31:27.939Z,96.98
2018-05-21T00:32:06.930Z,96.98
2018-05-21T00:33:06.927Z,97.17
2018-05-21T00:34:06.925Z,97.08
2018-05-21T00:35:06.924Z,96.98
2018-05-21T00:36:06.922Z,96.41
2018-05-21T00:37:27.927Z,96.98
2018-05-21T00:38:06.917Z,96.79
2018-05-21T00:39:06.917Z,96.98
2018-05-21T00:40:06.916Z,96.89
2018-05-21T00:41:06.915Z,96.98
2018-05-21T00:42:06.911Z,96.70
2018-05-21T00:43:27.917Z,97.46
2018-05-21T00:44:06.911Z,97.27
2018-05-21T00:45:06.907Z,97.55
2018-05-21T00:46:06.915Z,98.03
2018-05-21T00:47:06.903Z,97.93
2018-05-21T00:48:06.901Z,97.74
2018-05-21T00:49:27.906Z,97.84
2018-05-21T00:50:06.905Z,97.84
2018-05-21T00:51:06.905Z,98.60
2018-05-21T00:52:06.895Z,98.60
2018-05-21T00:53:06.891Z,98.60
2018-05-21T00:54:06.894Z,97.74
2018-05-21T00:55:27.897Z,98.98
2018-05-21T00:56:06.887Z,98.60
2018-05-21T00:57:06.888Z,98.74
2018-05-21T00:58:06.885Z,98.65
2018-05-21T00:59:06.884Z,99.12
2018-05-21T01:00:06.885Z,98.36
2018-05-21T01:01:27.886Z,98.93
2018-05-21T01:02:06.876Z,99.31
2018-05-21T01:03:06.897Z,99.22
2018-05-21T01:04:06.874Z,99.69
2018-05-21T01:05:06.873Z,99.99
2018-05-21T01:06:06.870Z,99.99
2018-05-21T01:07:27.877Z,99.99
2018-05-21T01:08:06.868Z,99.99
2018-05-21T01:09:06.865Z,99.99
2018-05-21T01:10:06.863Z,99.99
2018-05-21T01:11:06.863Z,99.99
2018-05-21T01:12:06.859Z,99.99
2018-05-21T01:13:27.866Z,99.99
2018-05-21T01:14:06.856Z,99.99
2018-05-21T01:15:06.856Z,99.99
2018-05-21T01:16:06.852Z,99.99
2018-05-21T01:17:06.850Z,99.99
2018-05-21T01:18:06.848Z,99.99
2018-05-21T01:19:27.854Z,99.99
2018-05-21T01:20:06.844Z,99.99
2018-05-21T01:21:06.849Z,99.99
2018-05-21T01:22:06.841Z,99.99
2018-05-21T01:23:06.845Z,99.99
2018-05-21T01:24:06.876Z,99.99
2018-05-21T01:25:27.843Z,99.99
2018-05-21T01:26:06.891Z,99.99
2018-05-21T01:27:06.834Z,99.99
2018-05-21T01:28:06.829Z,99.99
2018-05-21T01:29:06.828Z,99.99
2018-05-21T01:30:06.828Z,99.99
2018-05-21T01:31:27.835Z,99.99
2018-05-21T01:32:06.824Z,99.99
2018-05-21T01:33:06.822Z,99.99
2018-05-21T01:34:06.819Z,99.99
2018-05-21T01:35:06.818Z,99.99
2018-05-21T01:36:06.813Z,99.99
2018-05-21T01:37:27.820Z,99.99
2018-05-21T01:38:06.809Z,99.99
2018-05-21T01:39:06.810Z,99.99
2018-05-21T01:40:06.835Z,99.99
2018-05-21T01:41:06.808Z,99.99
2018-05-21T01:42:06.804Z,99.99
2018-05-21T01:43:27.810Z,99.99
2018-05-21T01:44:06.798Z,99.99
2018-05-21T01:45:06.798Z,99.99
2018-05-21T01:46:06.800Z,99.99
2018-05-21T01:47:06.794Z,99.99
2018-05-21T01:48:06.797Z,99.99
2018-05-21T01:49:27.796Z,99.99
2018-05-21T01:50:06.792Z,99.99
2018-05-21T01:51:06.785Z,99.99
2018-05-21T01:52:06.782Z,99.99
2018-05-21T01:53:06.781Z,99.99
2018-05-21T01:54:06.779Z,99.99
2018-05-21T01:55:27.788Z,99.99
2018-05-21T01:56:06.776Z,99.99
2018-05-21T01:57:06.773Z,99.99
2018-05-21T01:58:06.773Z,99.99
2018-05-21T01:59:06.776Z,99.99
2018-05-21T02:00:06.773Z,99.99
2018-05-21T02:01:27.775Z,99.99
2018-05-21T02:02:06.772Z,99.99
2018-05-21T02:03:06.763Z,99.99
2018-05-21T02:04:06.762Z,99.99
2018-05-21T02:05:06.763Z,99.99
2018-05-21T02:06:06.758Z,99.99
2018-05-21T02:07:27.762Z,99.99
2018-05-21T02:08:06.757Z,99.99
2018-05-21T02:09:06.752Z,99.99
2018-05-21T02:10:06.749Z,99.99
2018-05-21T02:11:06.746Z,99.99
2018-05-21T02:12:06.744Z,99.99
2018-05-21T02:13:27.754Z,99.99
2018-05-21T02:14:06.756Z,99.99
2018-05-21T02:15:06.737Z,99.99
2018-05-21T02:16:06.735Z,99.99
2018-05-21T02:17:06.733Z,99.99
2018-05-21T02:18:06.734Z,99.99
2018-05-21T02:19:27.739Z,99.99
2018-05-21T02:20:06.796Z,99.99
2018-05-21T02:21:06.726Z,99.99
2018-05-21T02:22:06.724Z,99.99
2018-05-21T02:23:06.721Z,99.99
2018-05-21T02:24:06.726Z,99.99
2018-05-21T02:25:27.724Z,99.99
2018-05-21T02:26:06.716Z,99.99
2018-05-21T02:27:06.755Z,99.99
2018-05-21T02:28:06.711Z,99.99
2018-05-21T02:29:06.710Z,99.99
2018-05-21T02:30:06.707Z,99.99
2018-05-21T02:31:27.713Z,99.99
2018-05-21T02:32:06.703Z,99.99
2018-05-21T02:33:06.700Z,99.99
2018-05-21T02:34:06.699Z,99.99
2018-05-21T02:35:06.707Z,99.99
2018-05-21T02:36:06.693Z,99.99
2018-05-21T02:37:27.700Z,99.99
2018-05-21T02:38:06.689Z,99.99
2018-05-21T02:39:06.688Z,99.99
2018-05-21T02:40:06.689Z,99.99
2018-05-21T02:41:06.682Z,99.99
2018-05-21T02:42:06.681Z,99.99
2018-05-21T02:43:27.688Z,99.99
2018-05-21T02:44:06.677Z,99.99
2018-05-21T02:45:07.298Z,99.99
2018-05-21T02:46:06.675Z,99.99
2018-05-21T02:47:06.673Z,99.99
2018-05-21T02:48:06.668Z,99.99
2018-05-21T02:49:27.674Z,99.99
2018-05-21T02:50:06.664Z,99.99
2018-05-21T02:51:06.662Z,99.99
2018-05-21T02:52:06.674Z,99.99
2018-05-21T02:53:06.660Z,99.99
2018-05-21T02:54:07.298Z,99.99
2018-05-21T02:55:27.661Z,99.99
2018-05-21T02:56:06.651Z,99.99
2018-05-21T02:57:06.725Z,99.99
2018-05-21T02:58:06.648Z,99.99
2018-05-21T02:59:06.645Z,99.99
2018-05-21T03:00:06.646Z,99.99
2018-05-21T03:01:27.647Z,99.99
2018-05-21T03:02:06.637Z,99.99
2018-05-21T03:03:06.719Z,99.99
2018-05-21T03:04:06.639Z,99.99
2018-05-21T03:05:06.630Z,99.99
2018-05-21T03:06:06.629Z,99.99
2018-05-21T03:07:27.635Z,99.99
2018-05-21T03:08:06.625Z,99.99
2018-05-21T03:09:06.650Z,99.99
2018-05-21T03:10:06.662Z,99.99
2018-05-21T03:11:06.618Z,99.99
2018-05-21T03:12:06.615Z,99.99
2018-05-21T03:13:28.301Z,99.99
2018-05-21T03:14:06.611Z,99.99
2018-05-21T03:15:06.609Z,99.99
2018-05-21T03:16:06.608Z,99.99
2018-05-21T03:17:06.604Z,99.99
2018-05-21T03:18:06.602Z,99.99
2018-05-21T03:19:27.607Z,99.99
2018-05-21T03:20:06.607Z,99.99
2018-05-21T03:21:06.596Z,99.99
2018-05-21T03:22:06.593Z,99.99
2018-05-21T03:23:06.590Z,99.99
2018-05-21T03:24:06.588Z,99.99
2018-05-21T03:25:27.593Z,99.99
2018-05-21T03:26:06.582Z,99.99
2018-05-21T03:27:06.582Z,99.99
2018-05-21T03:28:06.579Z,99.99
2018-05-21T03:29:06.575Z,99.99
2018-05-21T03:30:06.575Z,99.99
2018-05-21T03:31:27.579Z,99.99
2018-05-21T03:32:06.570Z,99.99
2018-05-21T03:33:06.581Z,99.99
2018-05-21T03:34:06.566Z,99.99
2018-05-21T03:35:06.563Z,99.99
2018-05-21T03:36:06.560Z,99.99
2018-05-21T03:37:27.567Z,99.99
2018-05-21T03:38:06.555Z,99.99
2018-05-21T03:39:06.553Z,99.99
2018-05-21T03:40:06.550Z,99.99
2018-05-21T03:41:06.548Z,99.99
2018-05-21T03:42:06.576Z,99.99
2018-05-21T03:43:28.304Z,99.99
2018-05-21T03:44:06.541Z,99.99
2018-05-21T03:45:06.538Z,99.99
2018-05-21T03:46:06.536Z,99.99
2018-05-21T03:47:06.534Z,99.99
2018-05-21T03:48:06.531Z,99.99
2018-05-21T03:49:27.540Z,99.99
2018-05-21T03:50:06.529Z,99.99
2018-05-21T03:51:06.542Z,99.99
2018-05-21T03:52:06.527Z,99.99
2018-05-21T03:53:06.550Z,99.99
2018-05-21T03:54:06.519Z,99.99
2018-05-21T03:55:27.526Z,99.99
2018-05-21T03:56:06.514Z,99.99
2018-05-21T03:57:06.515Z,99.99
2018-05-21T03:58:06.510Z,99.99
2018-05-21T03:59:06.509Z,99.99
2018-05-21T04:00:06.505Z,99.99
2018-05-21T04:01:27.511Z,99.99
2018-05-21T04:02:06.500Z,99.99
2018-05-21T04:03:06.500Z,99.99
2018-05-21T04:04:06.495Z,99.99
2018-05-21T04:05:06.506Z,99.99
2018-05-21T04:06:06.492Z,99.99
2018-05-21T04:07:27.498Z,99.99
2018-05-21T04:08:06.489Z,99.99
2018-05-21T04:09:06.490Z,99.99
2018-05-21T04:10:06.527Z,99.99
2018-05-21T04:11:06.485Z,99.99
2018-05-21T04:12:06.477Z,99.99
2018-05-21T04:13:27.486Z,99.99
2018-05-21T04:14:06.475Z,99.99
2018-05-21T04:15:06.473Z,99.99
2018-05-21T04:16:06.470Z,99.99
2018-05-21T04:17:06.468Z,99.99
2018-05-21T04:18:06.469Z,99.99
2018-05-21T04:19:27.491Z,99.99
2018-05-21T04:20:06.466Z,99.99
2018-05-21T04:21:06.461Z,99.99
2018-05-21T04:22:06.460Z,99.99
2018-05-21T04:23:06.462Z,99.99
2018-05-21T04:24:06.461Z,99.99
2018-05-21T04:25:27.457Z,99.99
2018-05-21T04:26:06.460Z,99.99
2018-05-21T04:27:06.448Z,99.99
2018-05-21T04:28:06.443Z,99.99
2018-05-21T04:29:06.443Z,99.99
2018-05-21T04:30:06.441Z,99.99
2018-05-21T04:31:27.452Z,99.99
2018-05-21T04:32:06.443Z,99.99
2018-05-21T04:33:06.435Z,99.99
2018-05-21T04:34:06.440Z,99.99
2018-05-21T04:35:06.435Z,99.99
2018-05-21T04:36:06.432Z,99.99
2018-05-21T04:37:27.437Z,99.99
2018-05-21T04:38:06.428Z,99.99
2018-05-21T04:39:06.424Z,99.99
2018-05-21T04:40:06.421Z,99.99
2018-05-21T04:41:06.419Z,99.99
2018-05-21T04:42:06.417Z,99.99
2018-05-21T04:43:27.423Z,99.99
2018-05-21T04:44:06.412Z,99.99
2018-05-21T04:45:06.420Z,99.99
2018-05-21T04:46:06.413Z,99.99
2018-05-21T04:47:06.406Z,99.99
2018-05-21T04:48:06.411Z,99.99
2018-05-21T04:49:27.410Z,99.99
2018-05-21T04:50:06.403Z,99.99
2018-05-21T04:51:06.401Z,99.99
2018-05-21T04:52:06.399Z,99.99
2018-05-21T04:53:06.396Z,99.99
2018-05-21T04:54:06.394Z,99.99
2018-05-21T04:55:27.400Z,99.99
2018-05-21T04:56:06.395Z,99.99
2018-05-21T04:57:06.396Z,99.99
2018-05-21T04:58:06.390Z,99.99
2018-05-21T04:59:06.385Z,99.99
2018-05-21T05:00:06.389Z,99.99
2018-05-21T05:01:27.390Z,99.99
2018-05-21T05:02:06.381Z,99.99
2018-05-21T05:03:06.382Z,99.99
2018-05-21T05:04:06.378Z,99.99
2018-05-21T05:05:06.377Z,99.99
2018-05-21T05:06:06.375Z,99.99
2018-05-21T05:07:27.380Z,99.99
2018-05-21T05:08:06.398Z,99.99
2018-05-21T05:09:06.370Z,99.99
2018-05-21T05:10:06.369Z,99.99
2018-05-21T05:11:06.367Z,99.99
2018-05-21T05:12:06.368Z,99.99
2018-05-21T05:13:27.374Z,99.99
2018-05-21T05:14:06.365Z,99.99
2018-05-21T05:15:06.362Z,99.99
2018-05-21T05:16:06.361Z,99.99
2018-05-21T05:17:06.359Z,99.99
2018-05-21T05:18:06.357Z,99.99
2018-05-21T05:19:27.364Z,99.99
2018-05-21T05:20:06.358Z,99.99
2018-05-21T05:21:06.405Z,99.99
2018-05-21T05:22:06.378Z,99.99
2018-05-21T05:23:06.354Z,99.99
2018-05-21T05:24:06.354Z,99.99
2018-05-21T05:25:27.358Z,99.99
2018-05-21T05:26:06.347Z,99.99
2018-05-21T05:27:06.348Z,99.99
2018-05-21T05:28:06.350Z,99.99
2018-05-21T05:29:07.312Z,99.99
2018-05-21T05:30:06.345Z,99.99
2018-05-21T05:31:27.352Z,99.99
2018-05-21T05:32:06.402Z,99.99
2018-05-21T05:33:06.354Z,99.99
2018-05-21T05:34:07.812Z,99.99
2018-05-21T05:35:06.345Z,99.99
2018-05-21T05:36:06.454Z,99.99
2018-05-21T05:37:27.352Z,99.99
2018-05-21T05:38:06.345Z,99.99
2018-05-21T05:39:07.313Z,99.99
2018-05-21T05:40:06.341Z,99.99
2018-05-21T05:41:06.364Z,99.99
2018-05-21T05:42:06.369Z,99.99
2018-05-21T05:43:27.511Z,99.76
2018-05-21T05:44:06.874Z,99.08
2018-05-21T05:45:06.337Z,97.75
2018-05-21T05:46:06.338Z,97.23
2018-05-21T05:47:06.348Z,97.13
2018-05-21T05:48:06.335Z,96.17
2018-05-21T05:49:27.344Z,95.12
2018-05-21T05:50:06.336Z,95.70
2018-05-21T05:51:06.338Z,95.65
2018-05-21T05:52:06.349Z,94.70
2018-05-21T05:53:06.356Z,94.31
2018-05-21T05:54:06.339Z,93.55
2018-05-21T05:55:27.347Z,92.40
2018-05-21T05:56:06.337Z,92.40
2018-05-21T05:57:06.335Z,91.59
2018-05-21T05:58:06.342Z,90.53
2018-05-21T05:59:06.337Z,90.63
2018-05-21T06:00:06.337Z,89.96
2018-05-21T06:01:27.344Z,90.16
2018-05-21T06:02:06.341Z,89.87
2018-05-21T06:03:06.339Z,89.58
2018-05-21T06:04:06.337Z,88.62
2018-05-21T06:05:06.340Z,88.67
2018-05-21T06:06:06.341Z,87.52
2018-05-21T06:07:27.354Z,86.37
2018-05-21T06:08:06.345Z,85.65
2018-05-21T06:09:06.344Z,84.69
2018-05-21T06:10:06.350Z,83.01
2018-05-21T06:11:06.345Z,81.23
2018-05-21T06:12:06.350Z,79.30
2018-05-21T06:13:27.361Z,77.90
2018-05-21T06:14:06.353Z,74.77
2018-05-21T06:15:06.353Z,70.97
2018-05-21T06:16:06.349Z,70.29
2018-05-21T06:17:06.353Z,69.40
2018-05-21T06:18:06.356Z,67.61
2018-05-21T06:19:27.368Z,66.55
2018-05-21T06:20:06.360Z,65.94
2018-05-21T06:21:06.869Z,64.28
2018-05-21T06:22:06.365Z,64.18
2018-05-21T06:24:00.817Z,63.28
2018-05-21T06:25:00.740Z,62.45
2018-05-21T06:26:55.164Z,61.68
2018-05-21T06:27:55.172Z,60.83
2018-05-21T06:29:49.540Z,60.49
2018-05-21T06:30:49.559Z,60.58
2018-05-21T06:32:43.987Z,60.13
2018-05-21T06:33:43.884Z,60.23
2018-05-21T06:35:38.297Z,60.20
2018-05-21T06:36:38.287Z,60.68
2018-05-21T06:38:33.130Z,59.94
2018-05-21T06:39:32.671Z,59.97
2018-05-21T06:41:27.028Z,58.23
2018-05-21T06:42:27.031Z,59.27
2018-05-21T06:44:21.471Z,58.52
2018-05-21T06:45:21.444Z,59.13
2018-05-21T06:47:15.804Z,57.46
2018-05-21T06:48:15.875Z,58.30
2018-05-21T06:50:10.219Z,58.33
2018-05-21T06:51:10.236Z,58.33
2018-05-21T06:53:04.820Z,59.17
2018-05-21T06:54:04.821Z,60.03
2018-05-21T06:55:04.835Z,59.00
2018-05-21T06:56:05.691Z,58.39
2018-05-21T06:57:04.837Z,56.26
2018-05-21T06:58:04.836Z,55.98
2018-05-21T06:59:04.934Z,56.16
2018-05-21T07:00:04.915Z,55.78
2018-05-21T07:01:04.910Z,55.78
2018-05-21T07:02:05.722Z,54.84
2018-05-21T07:03:04.872Z,54.27
2018-05-21T07:04:04.867Z,54.58
2018-05-21T07:05:04.868Z,53.78
2018-05-21T07:06:04.875Z,53.59
2018-05-21T07:07:04.881Z,54.94
2018-05-21T07:08:04.993Z,55.04
2018-05-21T07:09:04.892Z,53.61
2018-05-21T07:10:04.903Z,53.11
2018-05-21T07:11:04.910Z,52.23
2018-05-21T07:12:04.917Z,52.48
2018-05-21T07:13:04.923Z,52.48
2018-05-21T07:14:04.935Z,53.42
2018-05-21T07:15:04.938Z,53.11
2018-05-21T07:16:04.945Z,53.89
2018-05-21T07:17:04.955Z,55.05
2018-05-21T07:18:04.959Z,55.08
2018-05-21T07:19:04.967Z,54.24
2018-05-21T07:20:04.974Z,53.33
2018-05-21T07:21:04.982Z,53.13
2018-05-21T07:22:04.990Z,53.71
2018-05-21T07:23:05.000Z,52.72
2018-05-21T07:24:05.007Z,53.11
2018-05-21T07:25:05.036Z,52.23
2018-05-21T07:26:05.022Z,51.85
2018-05-21T07:27:05.033Z,51.46
2018-05-21T07:28:05.034Z,51.68
2018-05-21T07:29:05.069Z,51.95
2018-05-21T07:30:05.053Z,53.01
2018-05-21T07:31:05.061Z,54.05
2018-05-21T07:32:05.103Z,53.75
2018-05-21T07:33:05.075Z,53.69
2018-05-21T07:34:05.092Z,53.30
2018-05-21T07:35:05.099Z,53.11
2018-05-21T07:36:05.099Z,54.00
2018-05-21T07:37:05.293Z,52.17
2018-05-21T07:38:05.208Z,52.39
2018-05-21T07:39:05.137Z,52.39
2018-05-21T07:40:05.140Z,51.85
2018-05-21T07:41:05.149Z,52.59
2018-05-21T07:42:05.189Z,53.85
2018-05-21T07:43:05.169Z,54.24
2018-05-21T07:44:05.172Z,53.75
2018-05-21T07:45:05.181Z,53.11
2018-05-21T07:46:05.185Z,53.20
2018-05-21T07:47:05.196Z,52.50
2018-05-21T07:48:05.204Z,52.31
2018-05-21T07:49:05.214Z,53.49
2018-05-21T07:50:05.222Z,53.37
2018-05-21T07:51:05.258Z,53.34
2018-05-21T07:52:05.260Z,52.83
2018-05-21T07:53:05.257Z,53.92
2018-05-21T07:54:05.260Z,53.34
2018-05-21T07:55:05.269Z,52.37
2018-05-21T07:56:05.292Z,52.98
2018-05-21T07:57:05.289Z,53.37
2018-05-21T07:58:05.298Z,53.25
2018-05-21T07:59:05.306Z,52.67
2018-05-21T08:00:05.335Z,53.25
2018-05-21T08:01:05.327Z,53.15
2018-05-21T08:02:05.334Z,53.51
2018-05-21T08:03:05.396Z,53.61
2018-05-21T08:04:05.361Z,53.96
2018-05-21T08:05:05.409Z,55.09
2018-05-21T08:06:05.378Z,54.93
2018-05-21T08:07:05.382Z,54.74
2018-05-21T08:08:05.687Z,54.83
2018-05-21T08:09:05.403Z,53.31
2018-05-21T08:10:05.415Z,54.09
2018-05-21T08:11:05.424Z,55.05
2018-05-21T08:12:05.446Z,54.09
2018-05-21T08:13:05.457Z,52.93
2018-05-21T08:14:05.455Z,52.73
2018-05-21T08:15:05.469Z,53.22
2018-05-21T08:16:05.476Z,53.29
2018-05-21T08:17:05.498Z,54.74
2018-05-21T08:18:05.500Z,53.58
2018-05-21T08:19:05.507Z,54.25
2018-05-21T08:20:05.518Z,54.35
2018-05-21T08:21:05.526Z,53.96
2018-05-21T08:22:05.541Z,53.67
2018-05-21T08:23:05.544Z,53.77
2018-05-21T08:24:06.089Z,53.67
2018-05-21T08:25:05.567Z,54.25
2018-05-21T08:26:05.626Z,53.77
2018-05-21T08:27:05.584Z,53.48
2018-05-21T08:28:05.625Z,53.00
2018-05-21T08:29:05.610Z,52.01
2018-05-21T08:30:05.626Z,52.01
2018-05-21T08:31:05.622Z,52.49
2018-05-21T08:32:05.635Z,51.62
2018-05-21T08:33:05.645Z,53.27
2018-05-21T08:34:05.679Z,53.39
2018-05-21T08:35:05.664Z,52.01
2018-05-21T08:36:05.690Z,53.36
2018-05-21T08:37:05.678Z,52.01
2018-05-21T08:38:05.684Z,52.49
2018-05-21T08:39:05.694Z,52.42
2018-05-21T08:40:05.705Z,53.00
2018-05-21T08:41:05.713Z,51.34
2018-05-21T08:42:05.748Z,52.59
2018-05-21T08:43:05.757Z,52.30
2018-05-21T08:44:05.737Z,52.01
2018-05-21T08:45:05.750Z,52.30
2018-05-21T08:46:05.757Z,52.33
2018-05-21T08:47:05.756Z,52.40
2018-05-21T08:48:05.763Z,52.49
2018-05-21T08:49:05.772Z,53.17
2018-05-21T08:50:05.779Z,52.20
2018-05-21T08:51:05.791Z,52.42
2018-05-21T08:52:05.790Z,52.61
2018-05-21T08:53:05.798Z,52.33
2018-05-21T08:54:05.803Z,52.69
2018-05-21T08:55:05.908Z,53.17
2018-05-21T08:56:05.822Z,53.74
2018-05-21T08:57:05.832Z,53.19
2018-05-21T08:58:05.825Z,51.84
2018-05-21T08:59:05.834Z,52.04
2018-05-21T09:00:05.848Z,52.33
2018-05-21T09:01:05.874Z,51.56
2018-05-21T09:02:05.852Z,51.48
2018-05-21T09:03:05.924Z,51.97
2018-05-21T09:04:05.872Z,51.48
2018-05-21T09:05:05.884Z,51.48
2018-05-21T09:06:05.880Z,52.45
2018-05-21T09:07:05.891Z,52.28
2018-05-21T09:08:05.896Z,51.32
2018-05-21T09:09:14.573Z,50.64
2018-05-21T09:11:00.323Z,51.61
2018-05-21T09:12:00.781Z,51.73
2018-05-21T09:13:55.880Z,49.58
2018-05-21T09:14:55.799Z,50.06
2018-05-21T09:16:50.190Z,50.16
2018-05-21T09:17:50.136Z,49.48
2018-05-21T09:19:44.535Z,50.96
2018-05-21T09:20:44.680Z,50.89
2018-05-21T09:22:38.997Z,50.11
2018-05-21T09:23:38.891Z,50.23
2018-05-21T09:25:33.456Z,50.33
2018-05-21T09:26:33.328Z,49.75
2018-05-21T09:28:27.759Z,49.07
2018-05-21T09:29:27.691Z,48.59
2018-05-21T09:31:23.130Z,50.04
2018-05-21T09:32:23.161Z,49.37
2018-05-21T09:34:30.562Z,50.79
2018-05-21T09:35:30.522Z,49.53
2018-05-21T09:36:30.591Z,47.99
2018-05-21T09:37:30.627Z,47.99
2018-05-21T09:38:40.244Z,48.66
2018-05-21T09:39:30.740Z,49.07
2018-05-21T09:40:30.550Z,48.57
2018-05-21T09:41:30.613Z,49.15
2018-05-21T09:42:33.514Z,49.37
2018-05-21T09:43:30.627Z,48.11
2018-05-21T09:44:30.563Z,47.31
2018-05-21T09:45:30.602Z,48.47
2018-05-21T09:46:30.646Z,48.18
2018-05-21T09:47:30.633Z,48.18
2018-05-21T09:48:30.624Z,48.08
2018-05-21T09:49:30.676Z,48.47
2018-05-21T09:50:31.463Z,47.38
2018-05-21T09:51:31.661Z,47.58
2018-05-21T09:52:30.720Z,48.35
2018-05-21T09:53:30.646Z,47.77
2018-05-21T09:54:30.657Z,47.89
2018-05-21T09:55:30.724Z,47.60
2018-05-21T09:56:30.640Z,49.37
2018-05-21T09:57:31.846Z,48.71
2018-05-21T09:58:56.962Z,47.94
2018-05-21T09:59:49.379Z,46.58
2018-05-21T10:01:40.222Z,47.55
2018-05-21T10:02:29.688Z,46.78
2018-05-21T10:04:29.656Z,46.88
2018-05-21T10:05:29.606Z,47.07
2018-05-21T10:06:29.571Z,47.74
2018-05-21T10:07:29.634Z,47.33
2018-05-21T10:08:29.603Z,47.31
2018-05-21T10:09:29.608Z,47.67
2018-05-21T10:10:30.472Z,47.96
2018-05-21T10:11:29.631Z,48.74
2018-05-21T10:12:30.473Z,49.22
2018-05-21T10:13:29.621Z,48.64
2018-05-21T10:14:29.626Z,49.44
2018-05-21T10:15:29.628Z,48.86
2018-05-21T10:16:29.680Z,48.30
2018-05-21T10:17:29.651Z,46.83
2018-05-21T10:18:30.479Z,46.34
2018-05-21T10:19:29.706Z,46.73
2018-05-21T10:20:29.690Z,48.28
2018-05-21T10:21:29.679Z,48.47
2018-05-21T10:22:29.690Z,47.14
2018-05-21T10:23:29.722Z,47.63
2018-05-21T10:24:29.693Z,46.47
2018-05-21T10:25:29.743Z,47.81
2018-05-21T10:26:29.741Z,48.03
2018-05-21T10:27:29.786Z,47.94
2018-05-21T10:28:29.764Z,47.19
2018-05-21T10:29:29.864Z,47.48
2018-05-21T10:30:29.785Z,44.48
2018-05-21T10:31:29.761Z,45.18
2018-05-21T10:32:29.815Z,46.15
2018-05-21T10:33:29.799Z,45.08
2018-05-21T10:34:29.766Z,45.95
2018-05-21T10:35:29.834Z,45.95
2018-05-21T10:36:29.823Z,44.89
2018-05-21T10:37:29.784Z,45.35
2018-05-21T10:38:31.721Z,44.77
2018-05-21T10:39:31.759Z,44.94
2018-05-21T10:40:31.702Z,46.20
2018-05-21T10:41:31.597Z,45.81
2018-05-21T10:42:29.864Z,45.91
2018-05-21T10:43:30.036Z,46.78
2018-05-21T10:44:29.849Z,45.11
2018-05-21T10:45:29.922Z,45.11
2018-05-21T10:46:29.840Z,45.98
2018-05-21T10:47:31.587Z,45.89
2018-05-21T10:48:29.926Z,46.39
2018-05-21T10:49:49.591Z,45.23
2018-05-21T10:51:30.575Z,45.35
2018-05-21T10:52:30.500Z,45.93
2018-05-21T10:53:30.435Z,45.25
2018-05-21T10:54:30.448Z,44.26
2018-05-21T10:55:30.471Z,44.26
2018-05-21T10:56:33.488Z,44.34
2018-05-21T10:57:53.140Z,45.50
2018-05-21T10:59:24.985Z,45.23
2018-05-21T11:00:24.985Z,45.54
2018-05-21T11:01:24.948Z,44.36
2018-05-21T11:02:24.901Z,44.36
2018-05-21T11:03:34.652Z,43.32
2018-05-21T11:05:28.320Z,43.78
2018-05-21T11:06:28.269Z,45.04
2018-05-21T11:08:23.681Z,44.94
2018-05-21T11:09:23.866Z,44.67
2018-05-21T11:10:23.704Z,45.06
2018-05-21T11:11:24.349Z,44.96
2018-05-21T11:12:23.666Z,44.67
2018-05-21T11:13:23.746Z,45.06
2018-05-21T11:14:23.687Z,44.70
2018-05-21T11:15:23.667Z,43.40
2018-05-21T11:16:23.705Z,44.29
2018-05-21T11:17:23.706Z,45.16
2018-05-21T11:18:23.690Z,45.16
2018-05-21T11:19:23.693Z,45.08
2018-05-21T11:20:23.706Z,45.20
2018-05-21T11:21:23.709Z,45.10
2018-05-21T11:22:23.726Z,44.04
2018-05-21T11:23:23.717Z,43.95
2018-05-21T11:24:23.725Z,44.50
2018-05-21T11:25:23.773Z,44.29
2018-05-21T11:26:23.844Z,45.16
2018-05-21T11:27:23.748Z,44.19
2018-05-21T11:28:23.834Z,44.87
2018-05-21T11:29:23.798Z,45.35
2018-05-21T11:30:23.770Z,46.44
2018-05-21T11:31:23.789Z,44.98
2018-05-21T11:32:26.757Z,45.18
2018-05-21T11:33:24.716Z,44.81
2018-05-21T11:34:23.822Z,44.79
2018-05-21T11:35:23.808Z,45.18
2018-05-21T11:37:48.313Z,44.94
2018-05-21T11:38:48.280Z,46.10
2018-05-21T11:40:42.832Z,45.42
2018-05-21T11:41:42.755Z,44.56
2018-05-21T11:42:42.730Z,44.36
2018-05-21T11:43:42.739Z,45.04
2018-05-21T11:44:43.273Z,45.54
2018-05-21T11:45:42.826Z,45.52
2018-05-21T11:46:42.716Z,44.65
2018-05-21T11:47:42.746Z,46.10
2018-05-21T11:48:42.739Z,45.83
2018-05-21T11:51:12.132Z,44.60
2018-05-21T11:52:10.302Z,44.79
2018-05-21T11:54:06.137Z,45.06
2018-05-21T11:56:32.663Z,44.12
2018-05-21T11:59:28.061Z,43.05
2018-05-21T12:00:17.295Z,42.96
2018-05-21T12:03:57.673Z,44.53
2018-05-21T12:05:00.580Z,44.04
2018-05-21T12:12:11.282Z,43.90
2018-05-21T12:14:54.332Z,45.37
2018-05-21T12:15:55.200Z,43.17
2018-05-21T12:18:53.533Z,43.37
2018-05-21T12:19:33.374Z,43.27
2018-05-21T12:22:37.876Z,42.25
2018-05-21T12:25:01.120Z,43.41
2018-05-21T12:26:01.221Z,41.97
2018-05-21T12:27:55.532Z,43.34
2018-05-21T12:28:56.078Z,42.28
2018-05-21T12:30:49.900Z,42.57
2018-05-21T12:31:49.916Z,41.72
2018-05-21T12:33:44.330Z,41.14
2018-05-21T12:34:44.231Z,40.05
2018-05-21T12:36:38.645Z,41.39
2018-05-21T12:37:38.687Z,41.67
2018-05-21T12:39:35.011Z,42.55
2018-05-21T12:40:34.324Z,41.50
2018-05-21T12:42:28.726Z,41.21
2018-05-21T12:43:28.711Z,41.62
2018-05-21T12:45:23.113Z,41.24
2018-05-21T12:46:23.096Z,38.81
2018-05-21T12:47:23.112Z,38.81
2018-05-21T12:48:23.102Z,39.97
2018-05-21T12:49:23.103Z,39.39
2018-05-21T12:50:23.110Z,39.18
2018-05-21T12:51:23.117Z,39.55
2018-05-21T12:52:23.125Z,39.94
2018-05-21T12:53:23.141Z,41.09
2018-05-21T12:54:23.148Z,39.18
2018-05-21T12:55:24.582Z,39.67
2018-05-21T12:56:23.147Z,39.20
2018-05-21T12:57:23.164Z,38.99
2018-05-21T12:58:23.166Z,40.25
2018-05-21T12:59:23.172Z,40.05
2018-05-21T13:00:23.195Z,40.15
2018-05-21T13:01:23.243Z,39.86
2018-05-21T13:02:26.405Z,39.67
2018-05-21T13:03:23.202Z,39.64
2018-05-21T13:04:23.203Z,39.72
2018-05-21T13:05:23.272Z,39.62
2018-05-21T13:06:24.148Z,39.90
2018-05-21T13:07:23.491Z,39.72
2018-05-21T13:08:23.250Z,40.30
2018-05-21T13:09:23.356Z,41.39
2018-05-21T13:10:23.328Z,39.86
2018-05-21T13:11:23.285Z,39.28
2018-05-21T13:12:23.481Z,38.41
2018-05-21T13:13:23.268Z,39.18
2018-05-21T13:14:23.358Z,39.47
2018-05-21T13:15:23.378Z,38.41
2018-05-21T13:16:23.293Z,40.05
2018-05-21T13:17:23.322Z,40.17
2018-05-21T13:18:23.308Z,37.85
2018-05-21T13:19:23.305Z,38.21
2018-05-21T13:20:23.309Z,38.21
2018-05-21T13:21:23.315Z,38.89
2018-05-21T13:22:24.300Z,40.05
2018-05-21T13:23:23.334Z,37.73
2018-05-21T13:24:23.449Z,38.89
2018-05-21T13:25:23.643Z,38.60
2018-05-21T13:26:23.599Z,37.94
2018-05-21T13:27:23.354Z,38.64
2018-05-21T13:28:24.092Z,38.45
2018-05-21T13:29:23.379Z,38.04
2018-05-21T13:30:23.384Z,38.43
2018-05-21T13:31:23.494Z,38.04
2018-05-21T13:32:24.155Z,38.71
2018-05-21T13:33:24.411Z,38.04
2018-05-21T13:34:23.424Z,38.54
2018-05-21T13:35:23.407Z,38.45
2018-05-21T13:36:23.417Z,37.38
2018-05-21T13:37:23.426Z,37.38
2018-05-21T13:38:23.427Z,37.96
2018-05-21T13:39:24.394Z,37.19
2018-05-21T13:43:33.547Z,36.22
2018-05-21T13:44:30.680Z,36.51
2018-05-21T13:46:29.905Z,37.55
2018-05-21T13:47:33.469Z,38.71
2018-05-21T13:49:19.558Z,38.21
2018-05-21T13:50:19.923Z,38.41
2018-05-21T13:52:13.893Z,38.12